createdAt,value
2018-01-24T00:01:58.872Z,48.80
2018-01-24T00:04:25.813Z,49.90
2018-01-24T00:06:52.982Z,56.53
2018-01-24T00:09:19.890Z,51.22
2018-01-24T00:11:46.753Z,54.75
2018-01-24T00:14:13.690Z,52.67
2018-01-24T00:16:40.860Z,52.10
2018-01-24T00:19:07.736Z,49.40
2018-01-24T00:21:34.637Z,54.60
2018-01-24T00:24:01.534Z,51.40
2018-01-24T00:26:28.442Z,51.88
2018-01-24T00:28:55.333Z,57.88
2018-01-24T00:31:22.192Z,53.57
2018-01-24T00:33:49.055Z,51.85
2018-01-24T00:36:15.973Z,53.65
2018-01-24T00:38:42.928Z,51.17
2018-01-24T00:41:10.117Z,46.30
2018-01-24T00:43:37.050Z,54.70
2018-01-24T00:46:03.937Z,52.90
2018-01-24T00:48:30.870Z,58.65
2018-01-24T00:50:57.751Z,54.33
2018-01-24T00:53:24.839Z,52.90
2018-01-24T00:55:51.711Z,48.90
2018-01-24T00:58:18.580Z,58.15
2018-01-24T01:00:45.498Z,54.40
2018-01-24T01:03:12.389Z,57.78
2018-01-24T01:05:39.304Z,56.15
2018-01-24T01:08:06.513Z,57.58
2018-01-24T01:10:33.441Z,58.72
2018-01-24T01:13:00.336Z,57.40
2018-01-24T01:15:27.196Z,58.50
2018-01-24T01:17:54.396Z,56.28
2018-01-24T01:20:21.553Z,59.05
2018-01-24T01:22:48.698Z,54.20
2018-01-24T01:25:15.552Z,51.67
2018-01-24T01:27:42.415Z,54.67
2018-01-24T01:30:09.642Z,54.17
2018-01-24T01:32:36.794Z,57.15
2018-01-24T01:35:03.939Z,59.03
2018-01-24T01:37:31.188Z,56.55
2018-01-24T01:39:58.073Z,58.55
2018-01-24T01:42:24.962Z,53.35
2018-01-24T01:44:51.873Z,60.45
2018-01-24T01:47:18.748Z,51.33
2018-01-24T01:49:45.922Z,52.33
2018-01-24T01:52:13.068Z,53.28
2018-01-24T01:54:39.940Z,58.00
2018-01-24T01:57:06.830Z,55.15
2018-01-24T01:59:34.014Z,52.35
2018-01-24T02:02:00.872Z,52.90
2018-01-24T02:04:28.004Z,52.80
2018-01-24T02:06:54.914Z,48.67
2018-01-24T02:09:21.810Z,49.05
2018-01-24T02:11:49.052Z,51.20
2018-01-24T02:14:15.908Z,55.70
2018-01-24T02:16:43.136Z,51.83
2018-01-24T02:19:10.000Z,49.83
2018-01-24T02:21:36.928Z,57.08
2018-01-24T02:24:03.810Z,51.83
2018-01-24T02:26:30.708Z,48.50
2018-01-24T02:28:57.968Z,61.20
2018-01-24T02:31:24.829Z,51.45
2018-01-24T02:33:51.704Z,52.58
2018-01-24T02:36:18.572Z,53.35
2018-01-24T02:38:51.438Z,57.65
2018-01-24T02:41:18.641Z,55.58
2018-01-24T02:43:46.542Z,53.35
2018-01-24T02:46:13.428Z,56.50
2018-01-24T02:48:40.374Z,55.20
2018-01-24T02:51:07.653Z,53.97
2018-01-24T02:53:34.541Z,52.40
2018-01-24T02:56:01.466Z,57.55
2018-01-24T02:58:28.386Z,55.30
2018-01-24T03:00:55.647Z,55.05
2018-01-24T03:03:22.574Z,55.00
2018-01-24T03:05:49.837Z,58.28
2018-01-24T03:08:16.698Z,55.07
2018-01-24T03:10:43.597Z,58.15
2018-01-24T03:13:10.777Z,52.92
2018-01-24T03:15:37.652Z,57.47
2018-01-24T03:18:04.496Z,54.70
2018-01-24T03:20:31.389Z,58.60
2018-01-24T03:22:58.313Z,58.70
2018-01-24T03:25:26.182Z,57.95
2018-01-24T03:27:53.061Z,61.55
2018-01-24T03:30:20.218Z,59.80
2018-01-24T03:32:47.467Z,57.95
2018-01-24T03:35:14.717Z,52.47
2018-01-24T03:37:41.973Z,52.83
2018-01-24T03:40:09.121Z,57.20
2018-01-24T03:42:36.038Z,51.25
2018-01-24T03:45:02.929Z,49.72
2018-01-24T03:47:30.160Z,53.85
2018-01-24T03:49:57.049Z,48.72
2018-01-24T03:52:23.993Z,54.17
2018-01-24T03:54:50.868Z,50.00
2018-01-24T03:57:17.728Z,53.97
2018-01-24T03:59:44.612Z,50.60
2018-01-24T04:02:11.509Z,51.97
2018-01-24T04:04:38.425Z,50.58
2018-01-24T04:07:05.336Z,50.53
2018-01-24T04:09:32.473Z,51.50
2018-01-24T04:11:59.339Z,55.28
2018-01-24T04:14:26.241Z,56.40
2018-01-24T04:16:53.404Z,57.65
2018-01-24T04:19:20.559Z,56.75
2018-01-24T04:21:47.434Z,62.10
2018-01-24T04:24:14.341Z,57.75
2018-01-24T04:26:41.469Z,54.28
2018-01-24T04:29:08.320Z,58.40
2018-01-24T04:31:35.196Z,60.25
2018-01-24T04:34:02.062Z,59.75
2018-01-24T04:36:28.928Z,62.00
2018-01-24T04:38:55.784Z,61.90
2018-01-24T04:41:22.667Z,62.10
2018-01-24T04:43:49.806Z,57.22
2018-01-24T04:46:16.676Z,60.00
2018-01-24T04:48:43.800Z,64.15
2018-01-24T04:51:10.706Z,64.35
2018-01-24T04:53:37.560Z,60.00
2018-01-24T04:56:04.421Z,65.43
2018-01-24T04:58:31.316Z,66.33
2018-01-24T05:00:58.176Z,64.00
2018-01-24T05:03:25.082Z,62.50
2018-01-24T05:05:52.212Z,66.43
2018-01-24T05:08:19.076Z,63.87
2018-01-24T05:10:45.981Z,62.58
2018-01-24T05:13:12.853Z,70.97
2018-01-24T05:15:39.744Z,66.65
2018-01-24T05:18:06.940Z,63.70
2018-01-24T05:20:34.093Z,66.10
2018-01-24T05:23:01.241Z,63.87
2018-01-24T05:25:28.400Z,65.23
2018-01-24T05:27:55.280Z,72.85
2018-01-24T05:30:22.141Z,69.27
2018-01-24T05:32:49.328Z,66.43
2018-01-24T05:35:16.187Z,68.28
2018-01-24T05:37:43.325Z,64.77
2018-01-24T05:40:10.480Z,65.82
2018-01-24T05:42:37.407Z,66.93
2018-01-24T05:45:04.573Z,66.07
2018-01-24T05:47:31.444Z,63.53
2018-01-24T05:49:58.321Z,61.28
2018-01-24T05:52:25.513Z,61.15
2018-01-24T05:54:52.599Z,61.53
2018-01-24T05:57:19.812Z,59.55
2018-01-24T05:59:46.960Z,61.88
2018-01-24T06:02:13.853Z,63.80
2018-01-24T06:04:40.742Z,57.67
2018-01-24T06:07:07.607Z,61.95
2018-01-24T06:09:34.484Z,57.60
2018-01-24T06:12:01.393Z,58.55
2018-01-24T06:14:28.528Z,61.70
2018-01-24T06:16:55.684Z,60.55
2018-01-24T06:19:22.945Z,62.62
2018-01-24T06:21:50.089Z,59.78
2018-01-24T06:24:16.980Z,59.22
2018-01-24T06:26:43.842Z,62.60
2018-01-24T06:29:10.746Z,57.25
2018-01-24T06:31:37.629Z,59.80
2018-01-24T06:34:04.492Z,58.17
2018-01-24T06:36:31.349Z,57.97
2018-01-24T06:38:58.204Z,61.00
2018-01-24T06:41:25.062Z,61.03
2018-01-24T06:43:52.294Z,58.92
2018-01-24T06:46:19.144Z,57.13
2018-01-24T06:48:46.042Z,60.03
2018-01-24T06:51:12.925Z,56.67
2018-01-24T06:53:40.177Z,55.50
2018-01-24T06:56:07.322Z,59.60
2018-01-24T06:58:34.230Z,61.33
2018-01-24T07:01:01.139Z,59.13
2018-01-24T07:03:28.784Z,56.33
2018-01-24T07:05:55.925Z,56.67
2018-01-24T07:08:22.802Z,53.05
2018-01-24T07:10:50.020Z,60.20
2018-01-24T07:13:22.923Z,54.30
2018-01-24T07:15:49.826Z,56.55
2018-01-24T07:18:16.790Z,57.42
2018-01-24T07:20:43.648Z,59.00
2018-01-24T07:23:10.516Z,58.92
2018-01-24T07:25:37.632Z,60.45
2018-01-24T07:28:04.534Z,61.05
2018-01-24T07:30:31.389Z,54.33
2018-01-24T07:32:58.265Z,59.53
2018-01-24T07:35:25.160Z,55.75
2018-01-24T07:37:52.012Z,53.17
2018-01-24T07:40:18.889Z,57.17
2018-01-24T07:42:46.050Z,53.20
2018-01-24T07:45:12.937Z,56.63
2018-01-24T07:47:39.904Z,62.28
2018-01-24T07:50:07.088Z,60.03
2018-01-24T07:52:34.006Z,60.00
2018-01-24T07:55:00.950Z,57.72
2018-01-24T07:57:28.233Z,63.97
2018-01-24T07:59:55.135Z,59.03
2018-01-24T08:02:22.327Z,61.63
2018-01-24T08:04:49.424Z,63.10
2018-01-24T08:07:16.629Z,63.50
2018-01-24T08:09:43.783Z,58.47
2018-01-24T08:12:10.667Z,60.10
2018-01-24T08:14:37.524Z,56.22
2018-01-24T08:17:04.505Z,55.50
2018-01-24T08:19:31.663Z,57.83
2018-01-24T08:21:58.524Z,52.87
2018-01-24T08:24:26.003Z,52.53
2018-01-24T08:26:52.893Z,50.65
2018-01-24T08:29:19.788Z,51.60
2018-01-24T08:31:46.692Z,52.28
2018-01-24T08:34:13.780Z,51.93
2018-01-24T08:36:40.679Z,52.40
2018-01-24T08:39:07.554Z,51.27
2018-01-24T08:41:34.446Z,51.05
2018-01-24T08:44:01.632Z,52.05
2018-01-24T08:46:28.781Z,50.22
2018-01-24T08:48:55.641Z,47.90
2018-01-24T08:51:22.497Z,49.03
2018-01-24T08:53:49.386Z,52.10
2018-01-24T08:56:16.318Z,53.50
2018-01-24T08:58:43.181Z,50.88
2018-01-24T09:01:10.357Z,47.60
2018-01-24T09:03:37.282Z,50.10
2018-01-24T09:06:04.148Z,48.25
2018-01-24T09:08:31.065Z,53.15
2018-01-24T09:10:58.242Z,52.70
2018-01-24T09:13:25.100Z,48.45
2018-01-24T09:15:51.997Z,48.90
2018-01-24T09:18:19.183Z,49.42
2018-01-24T09:20:46.296Z,50.33
2018-01-24T09:23:13.178Z,47.45
2018-01-24T09:25:40.039Z,51.57
2018-01-24T09:28:07.270Z,50.65
2018-01-24T09:30:34.167Z,47.28
2018-01-24T09:33:01.028Z,48.27
2018-01-24T09:35:27.934Z,48.25
2018-01-24T09:37:54.830Z,42.42
2018-01-24T09:40:21.720Z,44.08
2018-01-24T09:42:48.941Z,43.38
2018-01-24T09:45:15.824Z,43.67
2018-01-24T09:47:42.750Z,45.95
2018-01-24T09:50:09.646Z,42.28
2018-01-24T09:52:36.549Z,42.58
2018-01-24T09:55:03.664Z,40.55
2018-01-24T09:57:30.535Z,40.30
2018-01-24T09:59:57.437Z,43.20
2018-01-24T10:02:24.296Z,39.87
2018-01-24T10:04:51.172Z,41.63
2018-01-24T10:07:18.396Z,37.88
2018-01-24T10:09:45.293Z,37.88
2018-01-24T10:12:12.148Z,36.45
2018-01-24T10:14:39.069Z,37.38
2018-01-24T10:17:06.017Z,36.40
2018-01-24T10:19:33.229Z,37.00
2018-01-24T10:22:00.112Z,36.90
2018-01-24T10:24:27.015Z,37.92
2018-01-24T10:26:53.894Z,35.80
2018-01-24T10:29:20.739Z,39.08
2018-01-24T10:31:47.848Z,34.67
2018-01-24T10:34:14.731Z,33.83
2018-01-24T10:36:41.601Z,35.67
2018-01-24T10:39:08.474Z,35.25
2018-01-24T10:41:35.399Z,33.90
2018-01-24T10:44:02.441Z,32.42
2018-01-24T10:46:29.359Z,35.80
2018-01-24T10:48:56.237Z,32.28
2018-01-24T10:51:23.144Z,32.40
2018-01-24T10:53:50.019Z,32.40
2018-01-24T10:56:17.312Z,32.70
2018-01-24T10:58:44.209Z,32.15
2018-01-24T11:01:11.406Z,31.48
2018-01-24T11:03:38.484Z,29.55
2018-01-24T11:06:05.402Z,30.60
2018-01-24T11:08:32.293Z,28.80
2018-01-24T11:10:59.392Z,27.55
2018-01-24T11:13:26.569Z,27.50
2018-01-24T11:15:53.456Z,28.87
2018-01-24T11:18:20.316Z,27.08
2018-01-24T11:20:47.206Z,24.30
2018-01-24T11:23:14.117Z,25.50
2018-01-24T11:25:41.269Z,24.20
2018-01-24T11:28:08.421Z,23.20
2018-01-24T11:30:35.309Z,21.83
2018-01-24T11:33:02.180Z,25.00
2018-01-24T11:35:29.352Z,21.30
2018-01-24T11:37:56.192Z,21.40
2018-01-24T11:40:23.355Z,23.40
2018-01-24T11:42:50.232Z,22.90
2018-01-24T11:45:17.550Z,21.70
2018-01-24T11:47:44.415Z,22.55
2018-01-24T11:50:11.299Z,21.47
2018-01-24T11:52:38.501Z,22.30
2018-01-24T11:55:05.636Z,20.53
2018-01-24T11:57:32.509Z,21.20
2018-01-24T11:59:59.659Z,22.07
2018-01-24T12:02:26.543Z,21.20
2018-01-24T12:04:53.430Z,21.67
2018-01-24T12:07:20.329Z,20.15
2018-01-24T12:09:47.188Z,21.52
2018-01-24T12:12:14.115Z,20.80
2018-01-24T12:14:41.001Z,19.87
2018-01-24T12:17:07.860Z,20.35
2018-01-24T12:19:35.095Z,20.52
2018-01-24T12:22:01.997Z,20.10
2018-01-24T12:24:28.878Z,20.00
2018-01-24T12:26:56.028Z,18.43
2018-01-24T12:29:23.202Z,19.35
2018-01-24T12:31:50.469Z,21.73
2018-01-24T12:34:17.373Z,18.40
2018-01-24T12:36:44.264Z,18.95
2018-01-24T12:39:11.166Z,19.00
2018-01-24T12:41:38.049Z,18.15
2018-01-24T12:44:04.934Z,16.90
2018-01-24T12:46:32.110Z,18.17
2018-01-24T12:48:59.362Z,16.47
2018-01-24T12:51:26.617Z,17.23
2018-01-24T12:53:53.479Z,17.60
2018-01-24T12:56:20.348Z,17.77
2018-01-24T12:58:47.209Z,17.37
2018-01-24T13:01:14.396Z,16.40
2018-01-24T13:03:41.289Z,26.23
2018-01-24T13:06:08.497Z,16.80
2018-01-24T13:08:35.412Z,16.20
2018-01-24T13:11:02.321Z,16.80
2018-01-24T13:13:29.176Z,16.37
2018-01-24T13:15:56.095Z,16.00
2018-01-24T13:18:23.325Z,16.23
2018-01-24T13:20:50.226Z,17.15
2018-01-24T13:23:17.416Z,16.70
2018-01-24T13:25:44.314Z,16.20
2018-01-24T13:28:11.221Z,16.73
2018-01-24T13:30:38.083Z,15.60
2018-01-24T13:33:04.952Z,14.80
2018-01-24T13:35:32.041Z,17.00
2018-01-24T13:37:58.920Z,15.88
2018-01-24T13:40:26.142Z,15.05
2018-01-24T13:42:53.032Z,14.82
2018-01-24T13:45:20.132Z,17.20
2018-01-24T13:47:46.987Z,14.30
2018-01-24T13:50:14.124Z,14.20
2018-01-24T13:52:40.976Z,14.73
2018-01-24T13:55:08.121Z,13.93
2018-01-24T13:57:35.372Z,14.18
2018-01-24T14:00:02.625Z,13.50
2018-01-24T14:02:29.572Z,14.00
2018-01-24T14:04:56.725Z,13.80
2018-01-24T14:07:23.625Z,14.02
2018-01-24T14:09:50.525Z,13.00
2018-01-24T14:12:17.384Z,13.80
2018-01-24T14:14:44.236Z,12.90
2018-01-24T14:17:11.134Z,12.30
2018-01-24T14:19:38.042Z,13.80
2018-01-24T14:22:05.242Z,13.62
2018-01-24T14:24:32.109Z,12.90
2018-01-24T14:26:59.034Z,12.35
2018-01-24T14:29:25.896Z,12.70
2018-01-24T14:31:52.752Z,12.85
2018-01-24T14:34:19.612Z,13.57
2018-01-24T14:36:46.513Z,13.50
2018-01-24T14:39:13.390Z,14.43
2018-01-24T14:41:40.285Z,13.87
2018-01-24T14:44:07.445Z,14.13
2018-01-24T14:46:34.327Z,12.50
2018-01-24T14:49:01.544Z,12.00
2018-01-24T14:51:28.685Z,13.93
2018-01-24T14:53:55.836Z,11.93
2018-01-24T14:56:22.721Z,12.60
2018-01-24T14:58:49.933Z,12.73
2018-01-24T15:01:16.831Z,12.70
2018-01-24T15:03:44.032Z,12.85
2018-01-24T15:06:10.907Z,13.10
2018-01-24T15:08:37.788Z,12.20
2018-01-24T15:11:04.673Z,12.60
2018-01-24T15:13:31.560Z,12.55
2018-01-24T15:15:58.652Z,13.75
2018-01-24T15:18:25.577Z,11.23
2018-01-24T15:20:52.488Z,11.00
2018-01-24T15:23:19.849Z,13.20
2018-01-24T15:25:46.954Z,11.40
2018-01-24T15:28:13.806Z,10.73
2018-01-24T15:30:40.940Z,12.63
2018-01-24T15:33:07.801Z,11.30
2018-01-24T15:35:35.060Z,12.02
2018-01-24T15:38:01.917Z,10.77
2018-01-24T15:40:28.841Z,12.45
2018-01-24T15:42:55.734Z,23.95
2018-01-24T15:45:22.600Z,9.98
2018-01-24T15:47:49.519Z,12.60
2018-01-24T15:50:16.678Z,10.32
2018-01-24T15:52:43.865Z,10.13
2018-01-24T15:55:11.018Z,10.88
2018-01-24T15:57:37.940Z,10.30
2018-01-24T16:00:04.854Z,10.00
2018-01-24T16:02:31.729Z,9.60
2018-01-24T16:04:58.805Z,9.30
2018-01-24T16:07:25.941Z,9.80
2018-01-24T16:09:52.822Z,12.80
2018-01-24T16:12:19.680Z,9.63
2018-01-24T16:14:46.889Z,9.63
2018-01-24T16:17:14.033Z,10.10
2018-01-24T16:19:40.941Z,9.90
2018-01-24T16:22:07.853Z,10.02
2018-01-24T16:24:34.972Z,9.50
2018-01-24T16:27:02.747Z,14.87
2018-01-24T16:29:29.592Z,9.30
2018-01-24T16:31:56.464Z,9.68
2018-01-24T16:34:23.365Z,9.68
2018-01-24T16:36:50.516Z,8.85
2018-01-24T16:39:17.469Z,8.90
2018-01-24T16:41:44.296Z,9.90
2018-01-24T16:44:11.705Z,8.57
2018-01-24T16:46:38.609Z,8.60
2018-01-24T16:49:05.497Z,8.60
2018-01-24T16:51:32.428Z,8.13
2018-01-24T16:53:59.309Z,8.83
2018-01-24T16:56:26.209Z,7.90
2018-01-24T16:58:53.106Z,8.80
2018-01-24T17:01:20.280Z,7.70
2018-01-24T17:03:47.161Z,9.00
2018-01-24T17:06:13.996Z,8.00
2018-01-24T17:08:40.877Z,7.50
2018-01-24T17:11:07.736Z,8.50
2018-01-24T17:13:34.643Z,19.17
2018-01-24T17:16:01.504Z,6.80
2018-01-24T17:18:28.692Z,7.22
2018-01-24T17:20:55.849Z,7.00
2018-01-24T17:23:22.746Z,6.80
2018-01-24T17:25:49.622Z,7.90
2018-01-24T17:28:16.505Z,7.07
2018-01-24T17:30:43.630Z,6.50
2018-01-24T17:33:10.478Z,6.60
2018-01-24T17:35:37.348Z,6.70
2018-01-24T17:38:04.229Z,6.10
2018-01-24T17:40:31.422Z,6.72
2018-01-24T17:42:58.338Z,5.90
2018-01-24T17:45:25.214Z,5.90
2018-01-24T17:47:52.111Z,6.30
2018-01-24T17:50:19.015Z,6.20
2018-01-24T17:52:46.246Z,6.28
2018-01-24T17:55:13.159Z,17.67
2018-01-24T17:57:40.074Z,9.18
2018-01-24T18:00:06.983Z,6.40
2018-01-24T18:02:33.890Z,6.25
2018-01-24T18:05:00.785Z,6.10
2018-01-24T18:07:28.045Z,8.00
2018-01-24T18:09:55.278Z,5.82
2018-01-24T18:12:22.534Z,6.90
2018-01-24T18:14:49.781Z,6.20
2018-01-24T18:17:17.041Z,6.05
2018-01-24T18:19:43.951Z,6.20
2018-01-24T18:22:10.821Z,5.90
2018-01-24T18:24:37.678Z,5.70
2018-01-24T18:27:04.773Z,7.03
2018-01-24T18:29:31.966Z,5.78
2018-01-24T18:31:59.114Z,5.90
2018-01-24T18:34:25.956Z,9.48
2018-01-24T18:36:53.104Z,5.90
2018-01-24T18:39:20.017Z,6.60
2018-01-24T18:41:46.900Z,5.90
2018-01-24T18:44:14.023Z,5.75
2018-01-24T18:46:40.882Z,5.70
2018-01-24T18:49:07.733Z,5.68
2018-01-24T18:51:34.638Z,6.00
2018-01-24T18:54:01.485Z,6.05
2018-01-24T18:56:28.374Z,5.20
2018-01-24T18:58:55.290Z,5.37
2018-01-24T19:01:22.167Z,5.90
2018-01-24T19:03:49.305Z,5.20
2018-01-24T19:06:16.560Z,6.00
2018-01-24T19:08:43.412Z,6.47
2018-01-24T19:11:10.355Z,5.20
2018-01-24T19:13:37.237Z,6.00
2018-01-24T19:16:04.130Z,6.00
2018-01-24T19:18:31.280Z,6.65
2018-01-24T19:20:58.170Z,5.30
2018-01-24T19:23:25.434Z,6.30
2018-01-24T19:25:52.633Z,5.18
2018-01-24T19:28:19.472Z,5.12
2018-01-24T19:30:46.626Z,5.20
2018-01-24T19:33:13.773Z,9.20
2018-01-24T19:35:40.612Z,5.93
2018-01-24T19:38:07.769Z,4.85
2018-01-24T19:40:35.030Z,6.10
2018-01-24T19:43:02.176Z,4.90
2018-01-24T19:45:29.032Z,5.07
2018-01-24T19:47:55.892Z,5.90
2018-01-24T19:50:23.115Z,4.70
2018-01-24T19:52:50.049Z,5.10
2018-01-24T19:55:16.897Z,4.78
2018-01-24T19:57:43.756Z,5.93
2018-01-24T20:00:10.999Z,5.00
2018-01-24T20:02:38.150Z,5.20
2018-01-24T20:05:05.046Z,5.18
2018-01-24T20:07:32.242Z,4.80
2018-01-24T20:09:59.388Z,5.10
2018-01-24T20:12:26.285Z,5.30
2018-01-24T20:14:53.171Z,5.00
2018-01-24T20:17:20.065Z,5.20
2018-01-24T20:19:47.174Z,4.60
2018-01-24T20:22:14.328Z,5.10
2018-01-24T20:24:41.193Z,5.07
2018-01-24T20:27:08.104Z,4.60
2018-01-24T20:29:34.944Z,5.20
2018-01-24T20:32:02.110Z,4.35
2018-01-24T20:34:28.983Z,4.77
2018-01-24T20:36:55.870Z,4.30
2018-01-24T20:39:22.774Z,4.80
2018-01-24T20:41:49.682Z,4.95
2018-01-24T20:44:16.532Z,4.60
2018-01-24T20:46:43.381Z,5.20
2018-01-24T20:49:10.236Z,5.40
2018-01-24T20:51:37.470Z,6.12
2018-01-24T20:54:05.542Z,4.28
2018-01-24T20:56:32.690Z,3.90
2018-01-24T20:58:59.604Z,4.73
2018-01-24T21:01:26.481Z,5.05
2018-01-24T21:03:53.360Z,4.93
2018-01-24T21:06:20.212Z,3.87
2018-01-24T21:08:47.090Z,4.10
2018-01-24T21:11:13.990Z,4.10
2018-01-24T21:13:40.878Z,3.77
2018-01-24T21:16:07.721Z,5.20
2018-01-24T21:18:34.601Z,5.22
2018-01-24T21:21:01.464Z,4.28
2018-01-24T21:23:28.347Z,3.72
2018-01-24T21:25:55.192Z,3.75
2018-01-24T21:28:28.410Z,5.00
2018-01-24T21:31:01.501Z,6.18
2018-01-24T21:33:34.432Z,4.00
2018-01-24T21:36:01.509Z,3.78
2018-01-24T21:38:28.632Z,5.65
2018-01-24T21:40:55.557Z,4.00
2018-01-24T21:43:22.437Z,4.47
2018-01-24T21:45:49.300Z,3.90
2018-01-24T21:48:16.193Z,5.10
2018-01-24T21:50:43.095Z,3.90
2018-01-24T21:53:09.977Z,4.47
2018-01-24T21:55:36.816Z,4.18
2018-01-24T21:58:04.049Z,4.20
2018-01-24T22:00:30.989Z,3.58
2018-01-24T22:02:57.900Z,3.87
2018-01-24T22:05:25.030Z,3.50
2018-01-24T22:07:52.198Z,3.30
2018-01-24T22:10:19.116Z,3.50
2018-01-24T22:12:46.341Z,4.23
2018-01-24T22:15:13.225Z,3.10
2018-01-24T22:17:40.424Z,3.40
2018-01-24T22:20:07.309Z,3.30
2018-01-24T22:22:34.209Z,3.00
2018-01-24T22:25:01.130Z,3.05
2018-01-24T22:27:28.010Z,3.30
2018-01-24T22:29:55.157Z,3.10
2018-01-24T22:32:22.066Z,3.30
2018-01-24T22:34:48.936Z,3.75
2018-01-24T22:37:15.818Z,3.80
2018-01-24T22:39:43.042Z,3.62
2018-01-24T22:42:09.926Z,3.10
2018-01-24T22:44:36.796Z,3.20
2018-01-24T22:47:03.977Z,2.90
2018-01-24T22:49:30.855Z,2.90
2018-01-24T22:51:58.077Z,3.20
2018-01-24T22:54:25.569Z,3.83
2018-01-24T22:56:52.420Z,3.50
2018-01-24T22:59:19.286Z,3.20
2018-01-24T23:01:46.147Z,3.37
2018-01-24T23:04:13.036Z,4.60
2018-01-24T23:06:39.884Z,5.20
2018-01-24T23:09:06.743Z,3.17
2018-01-24T23:11:33.948Z,5.35
2018-01-24T23:14:00.826Z,4.30
2018-01-24T23:16:27.803Z,3.70
2018-01-24T23:18:54.658Z,5.80
2018-01-24T23:21:21.516Z,4.12
2018-01-24T23:23:48.406Z,3.70
2018-01-24T23:26:15.286Z,4.00
2018-01-24T23:28:42.187Z,5.10
2018-01-24T23:31:09.410Z,3.80
2018-01-24T23:33:36.297Z,3.50
2018-01-24T23:36:03.167Z,4.20
2018-01-24T23:38:30.353Z,3.72
2018-01-24T23:40:57.257Z,4.20
2018-01-24T23:43:24.112Z,4.43
2018-01-24T23:45:51.001Z,5.82
2018-01-24T23:48:18.124Z,4.00
2018-01-24T23:50:45.011Z,3.10
2018-01-24T23:53:11.912Z,3.60
2018-01-24T23:55:38.790Z,3.50
2018-01-24T23:58:05.694Z,3.62
